»·PEaware :: N261MG KPSP-KSMX

N261MG :: KPSP-KSMX

FLIGHT INFORMATION

Flight Status: Arrived
Operator: Privately registered:
United States
More flights under this callsign
Pilot: Marty O. (15602)
Aircraft: ECLIPSE 500
(EA50)
More flights by this aircraft type
Origin: KPSP Palm Springs Intl
United States
Destination: KSMX Santa Maria Pub/Capt Hancock
United States
More flights between these airports :: More routes between these airports
Route: +CATH1 PSP V386 PMD RZS KOAKS
File this flight plan on PilotEdge
Remarks:
Altitude:
(Current/Filed)
18,000ft
Speed:
(Current/Filed)
340kts
Departed: 18-Oct-20 07:08 PM
Arrived: 18-Oct-20 08:01 PM
Distance/Time
Traveled:
203nm/0:53
Distance/Time
To Go:
Arrived

Flight Plot

Page will automatically refresh every two minutes.

Flight plan parsing failed; only flown route is shown


Map Options




Map Legend


Flown Route
Filed Route
Departure Airport
Arrival Airport
Navaid (VOR, NDB)
Fix

Horizontal Profiles

Position Reports

Time Latitude Longitude Heading Altitude Ground
Speed
18-Oct-20 18:58 33.822007 -116.496263 323 480ft 0kts
18-Oct-20 18:59 33.822007 -116.496263 323 480ft 0kts
18-Oct-20 19:00 33.822007 -116.496263 323 480ft 0kts
18-Oct-20 19:01 33.822007 -116.496263 323 480ft 0kts
18-Oct-20 19:02 33.822007 -116.496263 323 480ft 0kts
18-Oct-20 19:03 33.822007 -116.496263 323 480ft 0kts
18-Oct-20 19:04 33.821648 -116.496402 145 480ft 4kts
18-Oct-20 19:05 33.820753 -116.495605 145 480ft 1kts
18-Oct-20 19:06 33.819489 -116.496682 233 480ft 8kts
18-Oct-20 19:07 33.819042 -116.497410 239 480ft 4kts
18-Oct-20 19:08 33.826461 -116.504669 327 719ft 111kts
18-Oct-20 19:09 33.862435 -116.538898 321 3371ft 189kts
18-Oct-20 19:10 33.904213 -116.577848 347 6991ft 198kts
18-Oct-20 19:11 33.957823 -116.561087 11 10189ft 209kts
18-Oct-20 19:12 34.015789 -116.544798 9 12910ft 229kts
18-Oct-20 19:13 34.082242 -116.526682 8 15596ft 234kts
18-Oct-20 19:14 34.153713 -116.540395 339 16027ft 306kts
18-Oct-20 19:15 34.240236 -116.574606 340 16037ft 334kts
18-Oct-20 19:16 34.330082 -116.609995 340 16053ft 342kts
18-Oct-20 19:16 34.405429 -116.639710 340 16028ft 342kts
18-Oct-20 19:18 34.501990 -116.696005 296 15836ft 335kts
18-Oct-20 19:18 34.513952 -116.789221 277 15856ft 337kts
18-Oct-20 19:20 34.525198 -116.905778 277 15860ft 336kts
18-Oct-20 19:20 34.534189 -116.999418 277 15892ft 334kts
18-Oct-20 19:21 34.544852 -117.111333 277 15933ft 330kts
18-Oct-20 19:22 34.555310 -117.222078 277 16019ft 329kts
18-Oct-20 19:23 34.565607 -117.332250 277 16010ft 329kts
18-Oct-20 19:24 34.575820 -117.442623 277 16007ft 329kts
18-Oct-20 19:25 34.585947 -117.553164 277 16006ft 329kts
18-Oct-20 19:26 34.595970 -117.663704 277 15993ft 331kts
18-Oct-20 19:27 34.606037 -117.775835 277 15965ft 334kts
18-Oct-20 19:28 34.616071 -117.888805 277 15952ft 336kts
18-Oct-20 19:29 34.626452 -118.006985 277 15961ft 336kts
18-Oct-20 19:30 34.627486 -118.124191 267 15966ft 338kts
18-Oct-20 19:31 34.620081 -118.237834 267 15979ft 338kts
18-Oct-20 19:32 34.612557 -118.351486 267 15989ft 337kts
18-Oct-20 19:33 34.604947 -118.464783 267 15987ft 336kts
18-Oct-20 19:34 34.597226 -118.578141 267 15984ft 335kts
18-Oct-20 19:35 34.589444 -118.690844 266 15982ft 335kts
18-Oct-20 19:36 34.581579 -118.803283 266 15965ft 334kts
18-Oct-20 19:37 34.573661 -118.915288 266 15939ft 334kts
18-Oct-20 19:38 34.565604 -119.027495 265 15935ft 334kts
18-Oct-20 19:39 34.557415 -119.139770 265 15936ft 334kts
18-Oct-20 19:40 34.549148 -119.251886 265 15937ft 333kts
18-Oct-20 19:41 34.540797 -119.363803 265 15956ft 333kts
18-Oct-20 19:42 34.532344 -119.475733 265 15738ft 332kts
18-Oct-20 19:43 34.524430 -119.579170 265 14112ft 296kts
18-Oct-20 19:44 34.516822 -119.677683 265 12505ft 290kts
18-Oct-20 19:45 34.511828 -119.774270 287 10665ft 283kts
18-Oct-20 19:46 34.550416 -119.855843 298 8967ft 277kts
18-Oct-20 19:47 34.587095 -119.932069 298 8938ft 225kts
18-Oct-20 19:48 34.617078 -119.996609 289 8960ft 220kts
18-Oct-20 19:49 34.639335 -120.068548 290 7338ft 210kts
18-Oct-20 19:50 34.657952 -120.127578 289 6016ft 172kts
18-Oct-20 19:51 34.674732 -120.180647 289 4757ft 162kts
18-Oct-20 19:52 34.690786 -120.231384 289 3963ft 152kts
18-Oct-20 19:53 34.706975 -120.282634 289 3963ft 165kts
18-Oct-20 19:54 34.727165 -120.331883 327 3887ft 173kts
18-Oct-20 19:55 34.768530 -120.360292 328 3029ft 166kts
18-Oct-20 19:56 34.806807 -120.386559 328 2189ft 140kts
18-Oct-20 19:57 34.837741 -120.405664 345 1423ft 115kts
18-Oct-20 19:58 34.864750 -120.415062 330 870ft 92kts
18-Oct-20 19:59 34.883835 -120.435208 313 527ft 89kts
18-Oct-20 20:00 34.898264 -120.452492 318 264ft 26kts
18-Oct-20 20:01 34.897800 -120.453583 181 264ft 16kts
18-Oct-20 20:02 34.896122 -120.453592 180 264ft 4kts
18-Oct-20 20:03 34.892978 -120.453636 184 264ft 11kts
18-Oct-20 20:04 34.892054 -120.455473 224 264ft 0kts
18-Oct-20 20:05 34.865999 -120.415901 327 841ft 92kts

Navigation Log

Ident Type
Flight plan parsing failed, navigation log unavailable